Time;durP1;ratioP1;P1;durP2;ratioP2;P2;SDS_P1;SDS_P2;PMS_P1;PMS_P2;Temp;Humidity;BMP_temperature;BMP_pressure;BME280_temperature;BME280_humidity;BME280_pressure;Samples;Min_cycle;Max_cycle;Signal;HPM_P1;HPM_P2
2021/08/29 00:00:51;;;;;;;4.65;2.85;;;;;;;;;;5091895;28;20202;-46
2021/08/29 00:03:17;;;;;;;4.05;2.67;;;;;;;;;;5095655;28;20175;-46
2021/08/29 00:05:43;;;;;;;2.55;2.35;;;;;;;;;;5092556;28;20195;-46
2021/08/29 00:08:09;;;;;;;2.58;2.38;;;;;;;;;;5096839;28;20170;-46
2021/08/29 00:10:35;;;;;;;4.80;2.53;;;;;;;;;;5087365;28;20224;-47
2021/08/29 00:13:01;;;;;;;2.95;2.50;;;;;;;;;;5078043;28;20537;-46
2021/08/29 00:15:27;;;;;;;2.75;2.30;;;;;;;;;;5087992;28;20192;-46
2021/08/29 00:17:53;;;;;;;2.30;2.10;;;;;;;;;;5093246;28;20268;-46
2021/08/29 00:20:19;;;;;;;4.78;2.35;;;;;;;;;;5085077;28;20171;-46
2021/08/29 00:22:45;;;;;;;3.42;2.05;;;;;;;;;;5087194;28;20553;-46
2021/08/29 00:25:11;;;;;;;2.90;2.25;;;;;;;;;;5095158;28;20202;-46
2021/08/29 00:27:37;;;;;;;2.80;2.20;;;;;;;;;;5076362;28;20184;-46
2021/08/29 00:30:03;;;;;;;2.40;2.20;;;;;;;;;;5092171;28;20273;-46
2021/08/29 00:32:29;;;;;;;2.92;2.15;;;;;;;;;;5076594;28;20236;-46
2021/08/29 00:34:55;;;;;;;2.35;2.13;;;;;;;;;;5077838;28;20194;-46
2021/08/29 00:37:21;;;;;;;2.25;2.05;;;;;;;;;;5093189;28;20217;-46
2021/08/29 00:39:50;;;;;;;3.17;2.28;;;;;;;;;;5095673;28;20557;-46
2021/08/29 00:42:16;;;;;;;3.38;2.40;;;;;;;;;;5087984;28;20259;-46
2021/08/29 00:44:42;;;;;;;4.63;2.63;;;;;;;;;;5090188;28;20807;-45
2021/08/29 00:47:09;;;;;;;4.15;2.40;;;;;;;;;;5089091;28;20166;-46
2021/08/29 00:49:39;;;;;;;2.45;2.25;;;;;;;;;;5083964;28;20175;-46
2021/08/29 00:52:05;;;;;;;2.10;2.00;;;;;;;;;;5089621;28;20178;-46
2021/08/29 00:54:31;;;;;;;4.05;2.58;;;;;;;;;;5096144;28;20531;-46
2021/08/29 00:56:58;;;;;;;3.95;2.40;;;;;;;;;;5093909;28;20434;-46
2021/08/29 00:59:25;;;;;;;2.40;2.20;;;;;;;;;;5084441;28;20178;-46
2021/08/29 01:02:14;;;;;;;2.70;2.40;;;;;;;;;;5088445;28;20198;-46
2021/08/29 01:04:52;;;;;;;2.47;2.00;;;;;;;;;;5070486;28;20565;-46
2021/08/29 01:07:35;;;;;;;2.75;2.30;;;;;;;;;;5090954;28;20556;-46
2021/08/29 01:10:03;;;;;;;3.40;2.20;;;;;;;;;;5095084;28;20217;-46
2021/08/29 01:12:30;;;;;;;2.45;2.22;;;;;;;;;;5093693;28;20188;-46
2021/08/29 01:14:57;;;;;;;4.82;2.10;;;;;;;;;;5094461;28;20181;-46
2021/08/29 01:17:28;;;;;;;3.22;2.10;;;;;;;;;;5082086;28;20187;-46
2021/08/29 01:20:13;;;;;;;5.22;2.00;;;;;;;;;;5087349;28;20210;-46
2021/08/29 01:22:40;;;;;;;2.22;2.03;;;;;;;;;;5095215;28;20616;-46
2021/08/29 01:25:09;;;;;;;4.07;2.47;;;;;;;;;;5095142;28;20281;-46
2021/08/29 01:27:56;;;;;;;3.97;2.10;;;;;;;;;;5091914;28;20188;-45
2021/08/29 01:30:22;;;;;;;2.25;2.00;;;;;;;;;;5079477;28;20573;-45
2021/08/29 01:32:49;;;;;;;4.43;1.85;;;;;;;;;;5094636;28;20343;-46
2021/08/29 01:35:15;;;;;;;3.67;2.10;;;;;;;;;;5091918;28;20182;-46
2021/08/29 01:37:42;;;;;;;2.28;1.80;;;;;;;;;;5079281;28;20502;-46
2021/08/29 01:40:09;;;;;;;3.38;1.90;;;;;;;;;;5103840;28;20189;-46
2021/08/29 01:42:35;;;;;;;2.03;1.92;;;;;;;;;;5079690;28;20577;-46
2021/08/29 01:45:01;;;;;;;2.38;1.77;;;;;;;;;;5075347;28;20244;-46
2021/08/29 01:47:27;;;;;;;2.03;1.83;;;;;;;;;;5080118;28;20205;-46
2021/08/29 01:49:53;;;;;;;3.72;1.83;;;;;;;;;;5095100;28;20251;-46
2021/08/29 01:52:19;;;;;;;1.67;1.58;;;;;;;;;;5094787;28;20186;-46
2021/08/29 01:54:45;;;;;;;2.78;1.60;;;;;;;;;;5093052;28;20196;-46
2021/08/29 01:57:14;;;;;;;1.80;1.70;;;;;;;;;;5090443;28;20204;-46
2021/08/29 01:59:42;;;;;;;2.53;1.90;;;;;;;;;;5079724;28;20177;-46
2021/08/29 02:02:08;;;;;;;2.60;2.10;;;;;;;;;;5091214;28;20189;-46
2021/08/29 02:04:35;;;;;;;3.10;1.60;;;;;;;;;;5094855;28;20188;-45
2021/08/29 02:07:07;;;;;;;2.17;1.88;;;;;;;;;;5079322;28;20182;-46
2021/08/29 02:09:34;;;;;;;2.25;1.60;;;;;;;;;;5084369;28;20190;-46
2021/08/29 02:12:01;;;;;;;2.53;1.83;;;;;;;;;;5079636;28;20232;-46
2021/08/29 02:14:30;;;;;;;2.15;1.70;;;;;;;;;;5074124;28;20198;-45
2021/08/29 02:16:57;;;;;;;2.85;1.77;;;;;;;;;;5087023;28;20177;-46
2021/08/29 02:19:24;;;;;;;1.50;1.40;;;;;;;;;;5092604;28;20174;-46
2021/08/29 02:21:50;;;;;;;1.60;1.50;;;;;;;;;;5094805;28;20166;-46
2021/08/29 02:24:16;;;;;;;2.50;1.50;;;;;;;;;;5088495;28;20174;-46
2021/08/29 02:26:42;;;;;;;2.75;1.80;;;;;;;;;;5076307;28;20213;-46
2021/08/29 02:29:10;;;;;;;1.60;1.50;;;;;;;;;;5075059;28;20174;-46
2021/08/29 02:31:36;;;;;;;1.60;1.38;;;;;;;;;;5085693;28;20182;-46
2021/08/29 02:34:02;;;;;;;2.00;1.50;;;;;;;;;;5094440;28;20656;-46
2021/08/29 02:36:29;;;;;;;3.03;1.50;;;;;;;;;;5084821;28;20185;-46
2021/08/29 02:38:55;;;;;;;1.55;1.45;;;;;;;;;;5092060;28;20271;-46
2021/08/29 02:41:23;;;;;;;3.45;1.58;;;;;;;;;;5099285;28;20185;-46
2021/08/29 02:43:49;;;;;;;3.10;1.55;;;;;;;;;;5075347;28;20539;-46
2021/08/29 02:46:15;;;;;;;2.03;1.60;;;;;;;;;;5084986;28;20258;-46
2021/08/29 02:48:44;;;;;;;1.58;1.48;;;;;;;;;;5093495;28;20200;-46
2021/08/29 02:51:11;;;;;;;4.43;1.60;;;;;;;;;;5078291;28;20186;-46
2021/08/29 02:53:37;;;;;;;2.78;1.50;;;;;;;;;;5075235;28;20258;-46
2021/08/29 02:56:05;;;;;;;3.00;1.70;;;;;;;;;;5081743;28;20255;-46
2021/08/29 02:58:32;;;;;;;1.63;1.52;;;;;;;;;;5073438;28;20178;-46
2021/08/29 03:00:58;;;;;;;1.58;1.45;;;;;;;;;;5080107;28;20267;-46
2021/08/29 03:03:24;;;;;;;1.60;1.50;;;;;;;;;;5094413;28;20213;-46
2021/08/29 03:05:50;;;;;;;1.50;1.40;;;;;;;;;;5090789;28;20212;-46
2021/08/29 03:08:16;;;;;;;2.75;1.70;;;;;;;;;;5073654;28;20241;-46
2021/08/29 03:10:43;;;;;;;2.95;1.65;;;;;;;;;;5075191;28;20232;-46
2021/08/29 03:13:09;;;;;;;1.40;1.30;;;;;;;;;;5073867;28;20173;-46
2021/08/29 03:15:35;;;;;;;1.60;1.50;;;;;;;;;;5087714;28;20477;-46
2021/08/29 03:18:01;;;;;;;1.48;1.30;;;;;;;;;;5093460;28;20189;-46
2021/08/29 03:20:28;;;;;;;2.05;1.30;;;;;;;;;;5091957;28;20209;-46
2021/08/29 03:22:54;;;;;;;1.85;1.40;;;;;;;;;;5073989;28;20193;-46
2021/08/29 03:25:20;;;;;;;1.48;1.38;;;;;;;;;;5084096;28;20520;-46
2021/08/29 03:27:46;;;;;;;3.72;1.42;;;;;;;;;;5075985;28;20167;-46
2021/08/29 03:30:12;;;;;;;2.05;1.40;;;;;;;;;;5078785;28;20174;-46
2021/08/29 03:32:40;;;;;;;1.65;1.55;;;;;;;;;;5078415;28;20171;-46
2021/08/29 03:35:06;;;;;;;1.40;1.30;;;;;;;;;;5086637;28;20207;-45
2021/08/29 03:37:33;;;;;;;1.63;1.52;;;;;;;;;;5094990;28;20501;-46
2021/08/29 03:40:00;;;;;;;1.65;1.38;;;;;;;;;;5104051;28;20174;-46
2021/08/29 03:42:26;;;;;;;1.40;1.30;;;;;;;;;;5091373;28;20197;-46
2021/08/29 03:44:53;;;;;;;1.75;1.50;;;;;;;;;;5093057;28;20213;-46
2021/08/29 03:47:19;;;;;;;1.65;1.48;;;;;;;;;;5083791;28;20262;-46
2021/08/29 03:49:45;;;;;;;2.05;1.52;;;;;;;;;;5097266;28;20170;-46
2021/08/29 03:52:13;;;;;;;1.85;1.33;;;;;;;;;;5095053;28;20245;-46
2021/08/29 03:54:40;;;;;;;1.90;1.38;;;;;;;;;;5095483;28;20170;-45
2021/08/29 03:57:07;;;;;;;1.45;1.35;;;;;;;;;;5095664;28;20200;-46
2021/08/29 03:59:33;;;;;;;1.45;1.35;;;;;;;;;;5091425;28;20166;-45
2021/08/29 04:01:59;;;;;;;2.00;1.50;;;;;;;;;;5076930;28;20202;-46
2021/08/29 04:04:25;;;;;;;1.50;1.40;;;;;;;;;;5093352;28;20503;-46
2021/08/29 04:06:53;;;;;;;2.55;1.52;;;;;;;;;;5093588;28;20218;-46
2021/08/29 04:09:20;;;;;;;1.52;1.42;;;;;;;;;;5091635;28;20619;-46
2021/08/29 04:11:48;;;;;;;1.95;1.30;;;;;;;;;;5095915;28;20169;-46
2021/08/29 04:14:14;;;;;;;3.85;1.75;;;;;;;;;;5081761;28;20175;-46
2021/08/29 04:16:41;;;;;;;2.20;1.30;;;;;;;;;;5092919;28;20196;-46
2021/08/29 04:19:08;;;;;;;1.60;1.50;;;;;;;;;;5095929;28;20177;-46
2021/08/29 04:21:34;;;;;;;1.55;1.45;;;;;;;;;;5095207;28;20186;-46
2021/08/29 04:24:00;;;;;;;1.42;1.33;;;;;;;;;;5083372;28;20213;-46
2021/08/29 04:26:26;;;;;;;1.70;1.27;;;;;;;;;;5079913;28;20206;-46
2021/08/29 04:28:53;;;;;;;1.30;1.20;;;;;;;;;;5075995;28;20220;-46
2021/08/29 04:31:23;;;;;;;1.63;1.30;;;;;;;;;;5096090;28;20181;-46
2021/08/29 04:33:49;;;;;;;2.58;1.50;;;;;;;;;;5094998;28;20173;-46
2021/08/29 04:36:15;;;;;;;2.17;1.60;;;;;;;;;;5087191;28;20175;-46
2021/08/29 04:38:41;;;;;;;1.50;1.40;;;;;;;;;;5093862;28;20204;-46
2021/08/29 04:41:07;;;;;;;2.72;1.70;;;;;;;;;;5096373;28;20201;-46
2021/08/29 04:43:33;;;;;;;2.15;1.30;;;;;;;;;;5076255;28;20179;-46
2021/08/29 04:45:59;;;;;;;1.40;1.30;;;;;;;;;;5081295;28;20239;-46
2021/08/29 04:48:25;;;;;;;4.55;1.40;;;;;;;;;;5075677;28;20550;-46
2021/08/29 04:50:51;;;;;;;1.50;1.40;;;;;;;;;;5077098;28;20588;-46
2021/08/29 04:53:17;;;;;;;2.47;1.58;;;;;;;;;;5093449;28;20253;-46
2021/08/29 04:55:43;;;;;;;1.45;1.35;;;;;;;;;;5090889;28;20174;-46
2021/08/29 04:58:09;;;;;;;1.40;1.30;;;;;;;;;;5075481;28;20170;-45
2021/08/29 05:00:36;;;;;;;4.97;1.70;;;;;;;;;;5086242;28;20273;-46
2021/08/29 05:03:02;;;;;;;3.58;1.60;;;;;;;;;;5093233;28;20223;-46
2021/08/29 05:05:27;;;;;;;3.00;1.40;;;;;;;;;;5088790;28;20207;-46
2021/08/29 05:07:54;;;;;;;1.55;1.42;;;;;;;;;;5092119;28;20174;-46
2021/08/29 05:10:20;;;;;;;1.98;1.42;;;;;;;;;;5084650;28;20178;-46
2021/08/29 05:12:46;;;;;;;1.75;1.60;;;;;;;;;;5090397;28;20227;-46
2021/08/29 05:15:12;;;;;;;3.85;1.42;;;;;;;;;;5095323;28;20180;-46
2021/08/29 05:17:38;;;;;;;2.38;1.40;;;;;;;;;;5078735;28;20601;-46
2021/08/29 05:20:04;;;;;;;2.00;1.67;;;;;;;;;;5083199;28;20224;-46
2021/08/29 05:22:30;;;;;;;1.60;1.50;;;;;;;;;;5094115;28;20186;-46
2021/08/29 05:24:56;;;;;;;1.85;1.58;;;;;;;;;;5095057;28;20568;-46
2021/08/29 05:27:23;;;;;;;1.60;1.50;;;;;;;;;;5095420;28;20174;-46
2021/08/29 05:29:49;;;;;;;1.45;1.35;;;;;;;;;;5086897;28;20174;-46
2021/08/29 05:32:14;;;;;;;2.75;1.50;;;;;;;;;;5095558;28;20170;-46
2021/08/29 05:34:40;;;;;;;1.52;1.40;;;;;;;;;;5093042;28;20228;-46
2021/08/29 05:37:06;;;;;;;1.33;1.30;;;;;;;;;;5084090;28;20170;-46
2021/08/29 05:39:32;;;;;;;2.88;1.88;;;;;;;;;;5102995;28;20166;-46
2021/08/29 05:41:58;;;;;;;2.60;1.50;;;;;;;;;;5089207;28;20178;-46
2021/08/29 05:44:24;;;;;;;1.80;1.70;;;;;;;;;;5075893;28;20177;-46
2021/08/29 05:46:50;;;;;;;1.75;1.65;;;;;;;;;;5088371;28;20198;-46
2021/08/29 05:49:16;;;;;;;2.03;1.35;;;;;;;;;;5074715;28;20224;-46
2021/08/29 05:51:42;;;;;;;3.20;1.80;;;;;;;;;;5082500;28;20182;-46
2021/08/29 05:54:09;;;;;;;2.60;1.60;;;;;;;;;;5074652;28;20167;-46
2021/08/29 05:56:36;;;;;;;1.60;1.50;;;;;;;;;;5084654;28;20170;-46
2021/08/29 05:59:02;;;;;;;1.83;1.73;;;;;;;;;;5093983;28;20170;-46
2021/08/29 06:01:28;;;;;;;2.30;2.00;;;;;;;;;;5075465;28;20267;-46
2021/08/29 06:03:54;;;;;;;2.05;1.95;;;;;;;;;;5092392;28;20641;-46
2021/08/29 06:06:20;;;;;;;2.35;1.90;;;;;;;;;;5085299;28;20218;-46
2021/08/29 06:08:46;;;;;;;3.05;2.10;;;;;;;;;;5074971;28;20166;-46
2021/08/29 06:11:12;;;;;;;3.20;2.30;;;;;;;;;;5094038;28;20178;-46
2021/08/29 06:13:38;;;;;;;2.92;2.40;;;;;;;;;;5094948;28;20179;-46
2021/08/29 06:16:04;;;;;;;2.13;2.03;;;;;;;;;;5088761;28;20190;-46
2021/08/29 06:18:31;;;;;;;2.00;1.90;;;;;;;;;;5074703;28;20568;-46
2021/08/29 06:20:57;;;;;;;3.50;2.63;;;;;;;;;;5075452;28;20242;-46
2021/08/29 06:23:23;;;;;;;2.88;2.63;;;;;;;;;;5093831;28;20189;-46
2021/08/29 06:25:49;;;;;;;2.92;2.72;;;;;;;;;;5092664;28;20201;-46
2021/08/29 06:28:15;;;;;;;2.92;2.50;;;;;;;;;;5092431;28;20548;-45
2021/08/29 06:30:41;;;;;;;3.25;2.95;;;;;;;;;;5081673;28;20171;-46
2021/08/29 06:33:07;;;;;;;2.85;2.58;;;;;;;;;;5087590;28;20596;-46
2021/08/29 06:35:32;;;;;;;3.20;2.90;;;;;;;;;;5093073;28;20178;-46
2021/08/29 06:37:58;;;;;;;4.90;2.75;;;;;;;;;;5091150;28;20224;-46
2021/08/29 06:40:25;;;;;;;3.30;3.00;;;;;;;;;;5099129;28;20907;-46
2021/08/29 06:42:50;;;;;;;3.70;3.17;;;;;;;;;;5093659;28;20268;-46
2021/08/29 06:45:17;;;;;;;4.45;2.95;;;;;;;;;;5091915;28;20663;-46
2021/08/29 06:47:43;;;;;;;3.58;3.05;;;;;;;;;;5077149;28;20435;-46
2021/08/29 06:50:09;;;;;;;2.92;2.63;;;;;;;;;;5081046;28;20185;-46
2021/08/29 06:52:35;;;;;;;2.65;2.45;;;;;;;;;;5094392;28;20656;-46
2021/08/29 06:55:01;;;;;;;3.42;2.88;;;;;;;;;;5093878;28;20171;-47
2021/08/29 06:57:29;;;;;;;4.70;4.25;;;;;;;;;;5085517;28;20226;-46
2021/08/29 06:59:55;;;;;;;7.28;3.90;;;;;;;;;;5088986;28;20614;-47
2021/08/29 07:02:22;;;;;;;4.60;3.63;;;;;;;;;;5082571;28;20255;-47
2021/08/29 07:04:48;;;;;;;4.68;3.45;;;;;;;;;;5077959;28;20266;-46
2021/08/29 07:07:14;;;;;;;4.20;3.80;;;;;;;;;;5089889;28;20206;-46
2021/08/29 07:09:40;;;;;;;4.38;3.17;;;;;;;;;;5097634;28;20252;-47
2021/08/29 07:12:07;;;;;;;4.50;3.50;;;;;;;;;;5097936;28;20557;-47
2021/08/29 07:14:33;;;;;;;4.72;3.78;;;;;;;;;;5096071;28;20174;-47
2021/08/29 07:16:59;;;;;;;6.47;3.90;;;;;;;;;;5097363;28;20177;-47
2021/08/29 07:19:25;;;;;;;3.65;3.35;;;;;;;;;;5079393;28;20183;-46
2021/08/29 07:21:51;;;;;;;3.95;3.65;;;;;;;;;;5087951;28;20488;-46
2021/08/29 07:24:17;;;;;;;5.70;4.10;;;;;;;;;;5088853;28;20177;-47
2021/08/29 07:26:44;;;;;;;12.50;3.22;;;;;;;;;;5079500;28;20206;-47
2021/08/29 07:29:10;;;;;;;6.70;2.80;;;;;;;;;;5078221;28;20185;-46
2021/08/29 07:31:36;;;;;;;4.28;2.50;;;;;;;;;;5077376;28;20259;-48
2021/08/29 07:34:02;;;;;;;5.13;2.38;;;;;;;;;;5082819;28;20171;-47
2021/08/29 07:36:28;;;;;;;11.43;2.65;;;;;;;;;;5094439;28;20700;-44
2021/08/29 07:38:54;;;;;;;7.75;4.07;;;;;;;;;;5097651;28;20289;-47
2021/08/29 07:41:20;;;;;;;6.05;2.75;;;;;;;;;;5090041;28;20549;-47
2021/08/29 07:43:46;;;;;;;7.80;2.72;;;;;;;;;;5097487;28;20166;-47
2021/08/29 07:46:12;;;;;;;6.32;2.67;;;;;;;;;;5094239;28;20198;-47
2021/08/29 07:48:38;;;;;;;5.82;2.72;;;;;;;;;;5096306;28;20213;-47
2021/08/29 07:51:04;;;;;;;6.95;2.97;;;;;;;;;;5097545;28;20174;-47
2021/08/29 07:53:30;;;;;;;8.63;2.85;;;;;;;;;;5088368;28;20439;-47
2021/08/29 07:55:56;;;;;;;9.85;2.92;;;;;;;;;;5093313;28;20178;-47
2021/08/29 07:58:22;;;;;;;10.65;3.08;;;;;;;;;;5087880;28;20196;-47
2021/08/29 08:00:48;;;;;;;7.90;2.80;;;;;;;;;;5083027;28;20188;-47
2021/08/29 08:03:14;;;;;;;6.78;2.70;;;;;;;;;;5095401;28;20185;-47
2021/08/29 08:05:40;;;;;;;6.15;2.88;;;;;;;;;;5093401;28;20305;-47
2021/08/29 08:08:06;;;;;;;4.75;2.63;;;;;;;;;;5084436;28;20240;-52
2021/08/29 08:10:32;;;;;;;12.80;2.90;;;;;;;;;;5086675;28;20221;-47
2021/08/29 08:12:58;;;;;;;8.32;2.70;;;;;;;;;;5076392;28;20177;-47
2021/08/29 08:15:25;;;;;;;7.60;2.42;;;;;;;;;;5091763;28;20217;-46
2021/08/29 08:17:50;;;;;;;5.28;2.60;;;;;;;;;;5082653;28;20190;-47
2021/08/29 08:20:17;;;;;;;7.82;2.85;;;;;;;;;;5077877;28;20182;-47
2021/08/29 08:22:44;;;;;;;5.60;2.35;;;;;;;;;;5091687;28;20182;-47
2021/08/29 08:25:10;;;;;;;5.30;2.35;;;;;;;;;;5095829;28;20468;-47
2021/08/29 08:27:36;;;;;;;5.18;2.72;;;;;;;;;;5078337;28;20240;-46
2021/08/29 08:30:03;;;;;;;4.70;2.42;;;;;;;;;;5089742;28;20205;-46
2021/08/29 08:32:29;;;;;;;5.18;2.42;;;;;;;;;;5077189;28;20193;-47
2021/08/29 08:34:56;;;;;;;6.72;2.35;;;;;;;;;;5087467;28;20182;-47
2021/08/29 08:37:22;;;;;;;6.80;2.40;;;;;;;;;;5087382;28;20196;-47
2021/08/29 08:39:48;;;;;;;2.65;2.42;;;;;;;;;;5089252;28;20177;-47
2021/08/29 08:42:15;;;;;;;5.57;2.38;;;;;;;;;;5086932;28;20392;-47
2021/08/29 08:44:43;;;;;;;4.53;2.20;;;;;;;;;;5075991;28;20170;-46
2021/08/29 08:47:09;;;;;;;3.60;2.30;;;;;;;;;;5089491;28;20428;-47
2021/08/29 08:49:35;;;;;;;5.20;2.30;;;;;;;;;;5096241;28;20200;-47
2021/08/29 08:52:03;;;;;;;2.38;2.00;;;;;;;;;;5088623;28;20182;-47
2021/08/29 08:54:29;;;;;;;4.70;2.10;;;;;;;;;;5089011;28;20170;-47
2021/08/29 08:56:56;;;;;;;5.03;1.92;;;;;;;;;;5090678;28;20189;-47
2021/08/29 08:59:23;;;;;;;3.58;2.10;;;;;;;;;;5095997;28;20566;-47
2021/08/29 09:01:49;;;;;;;6.25;2.10;;;;;;;;;;5082163;28;20210;-47
2021/08/29 09:04:15;;;;;;;4.75;2.13;;;;;;;;;;5083651;28;20178;-46
2021/08/29 09:06:41;;;;;;;3.22;2.10;;;;;;;;;;5088273;28;20220;-47
2021/08/29 09:09:07;;;;;;;3.63;2.08;;;;;;;;;;5077112;28;20604;-46
2021/08/29 09:11:34;;;;;;;5.63;2.13;;;;;;;;;;5075503;28;20178;-47
2021/08/29 09:14:01;;;;;;;3.00;2.30;;;;;;;;;;5075517;28;20526;-47
2021/08/29 09:16:27;;;;;;;3.92;2.20;;;;;;;;;;5079570;28;20192;-47
2021/08/29 09:18:58;;;;;;;3.05;1.98;;;;;;;;;;5080333;28;20263;-47
2021/08/29 09:21:24;;;;;;;5.53;1.88;;;;;;;;;;5085243;28;20179;-46
2021/08/29 09:23:50;;;;;;;3.05;1.80;;;;;;;;;;5074815;28;20232;-47
2021/08/29 09:26:20;;;;;;;3.25;2.30;;;;;;;;;;5085740;28;20596;-46
2021/08/29 09:28:47;;;;;;;2.95;1.95;;;;;;;;;;5087820;28;20470;-47
2021/08/29 09:31:20;;;;;;;3.47;2.10;;;;;;;;;;5093828;28;20477;-47
2021/08/29 09:33:58;;;;;;;2.65;1.80;;;;;;;;;;5095272;28;20572;-46
2021/08/29 09:36:31;;;;;;;6.65;2.42;;;;;;;;;;5089063;28;20193;-47
2021/08/29 09:39:08;;;;;;;3.40;2.20;;;;;;;;;;5102984;28;20188;-46
2021/08/29 09:41:34;;;;;;;7.30;2.65;;;;;;;;;;5091390;28;20208;-46
2021/08/29 09:44:11;;;;;;;2.83;2.33;;;;;;;;;;5092379;28;20186;-46
2021/08/29 09:46:57;;;;;;;3.97;2.45;;;;;;;;;;5081853;28;20202;-47
2021/08/29 09:49:30;;;;;;;7.28;2.47;;;;;;;;;;5091243;28;20257;-47
2021/08/29 09:51:57;;;;;;;3.72;2.58;;;;;;;;;;5092886;28;20230;-47
2021/08/29 09:54:34;;;;;;;6.35;3.17;;;;;;;;;;5094747;28;20233;-47
2021/08/29 09:57:01;;;;;;;5.70;3.13;;;;;;;;;;5088689;28;20299;-46
2021/08/29 09:59:39;;;;;;;7.93;3.10;;;;;;;;;;5093086;28;20181;-46
2021/08/29 10:02:05;;;;;;;4.03;2.85;;;;;;;;;;5094467;28;20185;-46
2021/08/29 10:04:31;;;;;;;6.32;3.03;;;;;;;;;;5095127;28;20517;-46
2021/08/29 10:07:09;;;;;;;4.53;3.03;;;;;;;;;;5093420;28;20579;-46
2021/08/29 10:09:35;;;;;;;3.75;2.50;;;;;;;;;;5094716;28;20194;-47
2021/08/29 10:12:02;;;;;;;6.80;3.13;;;;;;;;;;5091532;28;20596;-47
2021/08/29 10:14:29;;;;;;;4.22;2.47;;;;;;;;;;5094527;28;20165;-46
2021/08/29 10:16:56;;;;;;;4.75;2.83;;;;;;;;;;5081726;28;20194;-46
2021/08/29 10:19:22;;;;;;;3.88;2.65;;;;;;;;;;5089995;28;20276;-47
2021/08/29 10:21:49;;;;;;;3.75;2.60;;;;;;;;;;5094500;28;20186;-47
2021/08/29 10:24:16;;;;;;;4.80;2.35;;;;;;;;;;5093365;28;20186;-46
2021/08/29 10:26:43;;;;;;;4.55;2.42;;;;;;;;;;5092238;28;20206;-46
2021/08/29 10:29:14;;;;;;;3.67;2.58;;;;;;;;;;5093197;28;20173;-47
2021/08/29 10:31:53;;;;;;;4.70;2.25;;;;;;;;;;5083937;28;20177;-47
2021/08/29 10:34:19;;;;;;;4.15;2.53;;;;;;;;;;5093868;28;20603;-47
2021/08/29 10:36:45;;;;;;;4.15;2.60;;;;;;;;;;5088518;28;20189;-46
2021/08/29 10:39:11;;;;;;;3.03;2.45;;;;;;;;;;5106443;28;20189;-47
2021/08/29 10:41:38;;;;;;;4.28;2.30;;;;;;;;;;5097637;28;20204;-46
2021/08/29 10:44:05;;;;;;;4.85;2.45;;;;;;;;;;5098126;28;20184;-46
2021/08/29 10:46:32;;;;;;;5.57;2.55;;;;;;;;;;5093418;28;20209;-46
2021/08/29 10:48:59;;;;;;;9.25;2.67;;;;;;;;;;5079062;28;20178;-47
2021/08/29 10:51:26;;;;;;;4.85;2.47;;;;;;;;;;5079241;28;20188;-47
2021/08/29 10:53:56;;;;;;;5.88;3.08;;;;;;;;;;5091460;28;20209;-46
2021/08/29 10:56:22;;;;;;;3.75;2.60;;;;;;;;;;5094874;28;20182;-46
2021/08/29 10:58:49;;;;;;;8.00;3.40;;;;;;;;;;5077700;28;20178;-47
2021/08/29 11:01:34;;;;;;;7.22;3.10;;;;;;;;;;5085808;28;20795;-47
2021/08/29 11:04:00;;;;;;;15.40;6.32;;;;;;;;;;5097774;28;20188;-47
2021/08/29 11:06:45;;;;;;;41.20;17.25;;;;;;;;;;5086021;28;20474;-46
2021/08/29 11:09:30;;;;;;;38.03;15.07;;;;;;;;;;5096236;28;20227;-47
2021/08/29 11:11:56;;;;;;;45.53;17.17;;;;;;;;;;5096741;28;20186;-46
2021/08/29 11:14:37;;;;;;;31.98;12.68;;;;;;;;;;5094984;28;20209;-47
2021/08/29 11:17:09;;;;;;;29.92;13.18;;;;;;;;;;5095631;28;20180;-47
2021/08/29 11:19:42;;;;;;;23.60;8.88;;;;;;;;;;5088871;28;20186;-47
2021/08/29 11:22:07;;;;;;;26.08;8.10;;;;;;;;;;5090552;28;20210;-47
2021/08/29 11:24:46;;;;;;;16.35;8.10;;;;;;;;;;5091662;28;20279;-47
2021/08/29 11:27:31;;;;;;;17.05;8.38;;;;;;;;;;5094953;28;20189;-47
2021/08/29 11:29:57;;;;;;;21.40;7.57;;;;;;;;;;5095320;28;20181;-47
2021/08/29 11:32:32;;;;;;;18.95;7.60;;;;;;;;;;5096117;28;20199;-47
2021/08/29 11:35:04;;;;;;;17.98;7.82;;;;;;;;;;5094603;28;20285;-47
2021/08/29 11:37:30;;;;;;;16.23;7.10;;;;;;;;;;5091413;28;20568;-47
2021/08/29 11:40:00;;;;;;;12.43;6.25;;;;;;;;;;5096433;28;20186;-47
2021/08/29 11:42:27;;;;;;;14.68;6.25;;;;;;;;;;5095395;28;20565;-47
2021/08/29 11:44:54;;;;;;;14.07;6.43;;;;;;;;;;5096238;28;20193;-47
2021/08/29 11:47:20;;;;;;;15.30;5.63;;;;;;;;;;5088141;28;20177;-47
2021/08/29 11:49:53;;;;;;;15.82;5.93;;;;;;;;;;5091296;28;20454;-47
2021/08/29 11:52:31;;;;;;;10.82;5.43;;;;;;;;;;5095899;28;20482;-47
2021/08/29 11:55:09;;;;;;;17.20;5.65;;;;;;;;;;5095748;28;20545;-47
2021/08/29 11:57:48;;;;;;;11.57;4.80;;;;;;;;;;5082924;28;20177;-47
2021/08/29 12:00:15;;;;;;;12.98;4.90;;;;;;;;;;5094380;28;20192;-47
2021/08/29 12:02:42;;;;;;;12.10;4.65;;;;;;;;;;5094179;28;20178;-47
2021/08/29 12:05:10;;;;;;;7.97;4.70;;;;;;;;;;5089171;28;20198;-46
2021/08/29 12:07:37;;;;;;;8.38;4.40;;;;;;;;;;5087810;28;20181;-47
2021/08/29 12:10:05;;;;;;;8.45;4.20;;;;;;;;;;5091157;28;20178;-47
2021/08/29 12:12:31;;;;;;;9.10;4.15;;;;;;;;;;5088717;28;20549;-47
2021/08/29 12:14:57;;;;;;;11.07;4.03;;;;;;;;;;5092090;28;20184;-47
2021/08/29 12:17:25;;;;;;;8.75;4.32;;;;;;;;;;5088080;28;20227;-46
2021/08/29 12:19:51;;;;;;;11.75;4.05;;;;;;;;;;5089748;28;20185;-46
2021/08/29 12:22:18;;;;;;;12.13;3.90;;;;;;;;;;5088546;28;20186;-47
2021/08/29 12:24:44;;;;;;;8.38;3.78;;;;;;;;;;5094528;28;20208;-47
2021/08/29 12:27:10;;;;;;;9.98;3.67;;;;;;;;;;5090472;28;20202;-47
2021/08/29 12:29:46;;;;;;;8.88;3.97;;;;;;;;;;5094579;28;20197;-47
2021/08/29 12:32:16;;;;;;;9.57;3.47;;;;;;;;;;5089102;28;20212;-47
2021/08/29 12:34:42;;;;;;;7.10;3.17;;;;;;;;;;5087450;28;20178;-47
2021/08/29 12:37:13;;;;;;;8.05;3.47;;;;;;;;;;5073583;28;20182;-47
2021/08/29 12:39:40;;;;;;;8.98;3.22;;;;;;;;;;5100661;28;20161;-47
2021/08/29 12:42:20;;;;;;;5.97;2.90;;;;;;;;;;5090477;28;20200;-46
2021/08/29 12:44:46;;;;;;;11.55;3.38;;;;;;;;;;5093277;28;20180;-47
2021/08/29 12:47:13;;;;;;;5.93;3.22;;;;;;;;;;5090851;28;20205;-47
2021/08/29 12:49:39;;;;;;;6.72;3.25;;;;;;;;;;5085381;28;20269;-47
2021/08/29 12:52:12;;;;;;;11.45;3.35;;;;;;;;;;5086731;28;20181;-47
2021/08/29 12:54:39;;;;;;;6.43;3.15;;;;;;;;;;5087106;28;20306;-47
2021/08/29 12:57:06;;;;;;;6.32;2.80;;;;;;;;;;5090395;28;20182;-46
2021/08/29 12:59:32;;;;;;;6.43;2.78;;;;;;;;;;5086082;28;20189;-47
2021/08/29 13:01:59;;;;;;;8.45;2.80;;;;;;;;;;5089302;28;20673;-47
2021/08/29 13:04:28;;;;;;;7.68;2.92;;;;;;;;;;5088462;28;20246;-46
2021/08/29 13:07:04;;;;;;;6.05;2.70;;;;;;;;;;5082429;28;20194;-47
2021/08/29 13:09:32;;;;;;;5.00;2.63;;;;;;;;;;5087604;28;20185;-47
2021/08/29 13:11:59;;;;;;;5.30;2.60;;;;;;;;;;5085447;28;20177;-47
2021/08/29 13:14:32;;;;;;;3.83;2.40;;;;;;;;;;5093983;28;20585;-47
2021/08/29 13:17:12;;;;;;;5.85;2.72;;;;;;;;;;5089149;28;20194;-47
2021/08/29 13:19:39;;;;;;;4.20;2.63;;;;;;;;;;5087977;28;20572;-47
2021/08/29 13:22:05;;;;;;;4.47;2.65;;;;;;;;;;5087856;28;20238;-47
2021/08/29 13:24:32;;;;;;;4.40;2.70;;;;;;;;;;5090887;28;20236;-47
2021/08/29 13:27:06;;;;;;;5.70;3.05;;;;;;;;;;5088611;28;20576;-47
2021/08/29 13:29:36;;;;;;;6.22;2.50;;;;;;;;;;5090859;28;20553;-47
2021/08/29 13:32:02;;;;;;;3.53;2.38;;;;;;;;;;5090650;28;20182;-47
2021/08/29 13:34:29;;;;;;;4.25;2.60;;;;;;;;;;5088465;28;20550;-47
2021/08/29 13:36:56;;;;;;;5.63;2.72;;;;;;;;;;5084523;28;20186;-47
2021/08/29 13:39:25;;;;;;;5.97;2.15;;;;;;;;;;5093199;28;20189;-47
2021/08/29 13:42:11;;;;;;;4.38;2.15;;;;;;;;;;5091635;28;20193;-47
2021/08/29 13:44:42;;;;;;;3.03;2.22;;;;;;;;;;5085194;28;20244;-48
2021/08/29 13:47:08;;;;;;;7.35;2.28;;;;;;;;;;5087655;28;20212;-47
2021/08/29 13:49:35;;;;;;;3.25;2.33;;;;;;;;;;5094011;28;20280;-47
2021/08/29 13:52:01;;;;;;;3.92;2.28;;;;;;;;;;5091907;28;20269;-47
2021/08/29 13:54:27;;;;;;;4.13;2.00;;;;;;;;;;5090229;28;20173;-47
2021/08/29 13:56:53;;;;;;;5.18;2.35;;;;;;;;;;5079260;28;20247;-48
2021/08/29 13:59:19;;;;;;;10.55;2.58;;;;;;;;;;5079262;28;20174;-47
2021/08/29 14:01:46;;;;;;;4.57;2.30;;;;;;;;;;5087862;28;20173;-47
2021/08/29 14:04:12;;;;;;;2.63;2.03;;;;;;;;;;5086645;28;20174;-47
2021/08/29 14:06:38;;;;;;;4.03;1.98;;;;;;;;;;5088911;28;20631;-47
2021/08/29 14:09:04;;;;;;;4.65;2.33;;;;;;;;;;5092409;28;20180;-47
2021/08/29 14:11:30;;;;;;;6.40;2.30;;;;;;;;;;5086882;28;20174;-47
2021/08/29 14:13:56;;;;;;;3.20;2.20;;;;;;;;;;5088282;28;20227;-47
2021/08/29 14:16:22;;;;;;;7.72;2.33;;;;;;;;;;5088544;28;20197;-47
2021/08/29 14:18:48;;;;;;;5.43;2.00;;;;;;;;;;5089383;28;20569;-47
2021/08/29 14:21:16;;;;;;;3.10;1.90;;;;;;;;;;5088777;28;20194;-47
2021/08/29 14:23:42;;;;;;;10.05;2.08;;;;;;;;;;5085341;28;20186;-47
2021/08/29 14:26:09;;;;;;;5.57;2.42;;;;;;;;;;5086603;28;20236;-47
2021/08/29 14:28:35;;;;;;;3.70;1.85;;;;;;;;;;5084492;28;20203;-47
2021/08/29 14:31:01;;;;;;;3.55;1.80;;;;;;;;;;5087708;28;20182;-47
2021/08/29 14:33:27;;;;;;;6.95;2.60;;;;;;;;;;5087141;28;20189;-47
2021/08/29 14:35:53;;;;;;;7.45;1.95;;;;;;;;;;5082308;28;20243;-47
2021/08/29 14:38:20;;;;;;;5.15;2.22;;;;;;;;;;5088562;28;20645;-47
2021/08/29 14:40:46;;;;;;;7.55;2.10;;;;;;;;;;5094943;28;20194;-47
2021/08/29 14:43:12;;;;;;;6.43;1.88;;;;;;;;;;5078754;28;20183;-48